Time;durP1;ratioP1;P1;durP2;ratioP2;P2;SDS_P1;SDS_P2;PMS_P1;PMS_P2;Temp;Humidity;BMP_temperature;BMP_pressure;BME280_temperature;BME280_humidity;BME280_pressure;Samples;Min_cycle;Max_cycle;Signal;HPM_P1;HPM_P2
2022/09/16 01:45:07;;;;;;;2.05;0.30;;;12.90;99.90;;;;;;6114703;23;20022;-81
2022/09/16 01:47:43;;;;;;;2.10;0.30;;;13.00;99.90;;;;;;6084841;23;20016;-80
2022/09/16 01:50:34;;;;;;;2.45;0.30;;;13.00;99.90;;;;;;6106622;23;20010;-80
2022/09/16 01:53:25;;;;;;;3.40;0.35;;;13.00;99.90;;;;;;6084059;23;20014;-81
2022/09/16 01:56:29;;;;;;;4.38;0.55;;;13.00;99.90;;;;;;6054353;23;20063;-80
2022/09/16 01:59:02;;;;;;;3.00;0.30;;;12.90;99.90;;;;;;6055165;23;20346;-80
2022/09/16 02:01:37;;;;;;;;;;;12.90;99.90;;;;;;6030667;23;20331;-80
2022/09/16 02:04:13;;;;;;;1.70;0.25;;;12.90;99.90;;;;;;6078830;23;19905;-81
2022/09/16 02:06:45;;;;;;;0.88;0.20;;;12.80;99.90;;;;;;6056434;23;20058;-80
2022/09/16 02:09:16;;;;;;;3.10;0.30;;;12.80;99.90;;;;;;6080133;23;20166;-80
2022/09/16 02:11:46;;;;;;;3.30;0.40;;;12.80;99.90;;;;;;6114340;23;19999;-80
2022/09/16 02:14:28;;;;;;;2.28;0.32;;;12.70;99.90;;;;;;6105340;23;20752;-81
2022/09/16 02:17:01;;;;;;;1.30;0.17;;;12.70;99.90;;;;;;6091711;23;20017;-82
2022/09/16 02:19:42;;;;;;;1.52;0.28;;;12.70;99.90;;;;;;6091530;23;20732;-80
2022/09/16 02:22:13;;;;;;;4.65;0.30;;;12.70;99.90;;;;;;6105789;23;20003;-81
2022/09/16 02:24:43;;;;;;;2.57;0.37;;;12.80;99.90;;;;;;6086552;23;20002;-80
2022/09/16 02:27:13;;;;;;;5.85;0.47;;;12.80;99.90;;;;;;6103664;23;20242;-80
2022/09/16 02:29:58;;;;;;;4.20;0.40;;;12.80;99.90;;;;;;6080995;23;20010;-80
2022/09/16 02:32:28;;;;;;;5.00;0.40;;;12.80;99.90;;;;;;6057366;23;20241;-80
2022/09/16 02:34:56;;;;;;;3.08;0.50;;;12.80;99.90;;;;;;6106418;23;20017;-80
2022/09/16 02:37:35;;;;;;;3.20;0.30;;;12.70;99.90;;;;;;6108267;23;20358;-81
2022/09/16 02:40:12;;;;;;;4.25;0.40;;;12.60;99.90;;;;;;6118662;23;20013;-81
2022/09/16 02:42:38;;;;;;;4.78;0.40;;;12.60;99.90;;;;;;6081763;23;20013;-81
2022/09/16 02:45:06;;;;;;;2.25;0.30;;;12.50;99.90;;;;;;6083165;23;20341;-81
2022/09/16 02:47:39;;;;;;;2.42;0.40;;;12.40;99.90;;;;;;6107489;23;20006;-81
2022/09/16 02:50:26;;;;;;;1.40;0.20;;;12.30;99.90;;;;;;6116441;23;20006;-80
2022/09/16 02:52:59;;;;;;;3.10;0.40;;;12.20;99.90;;;;;;6105363;23;20006;-80
2022/09/16 02:55:52;;;;;;;4.38;0.30;;;12.20;99.90;;;;;;6106934;23;20006;-80
2022/09/16 02:58:18;;;;;;;1.25;0.35;;;12.20;99.90;;;;;;6056806;23;20126;-81
2022/09/16 03:00:49;;;;;;;2.72;0.47;;;12.20;99.90;;;;;;6081351;23;20006;-79
2022/09/16 03:03:17;;;;;;;2.97;0.30;;;12.30;99.90;;;;;;6080833;23;20007;-80
2022/09/16 03:06:02;;;;;;;2.33;0.30;;;12.30;99.90;;;;;;6102850;23;20010;-80
2022/09/16 03:08:28;;;;;;;2.00;0.30;;;12.40;99.90;;;;;;6105330;23;20007;-79
2022/09/16 03:10:59;;;;;;;3.67;0.35;;;12.40;99.90;;;;;;6079229;23;20074;-80
2022/09/16 03:13:49;;;;;;;3.75;0.40;;;12.50;99.90;;;;;;6079876;23;20010;-80
2022/09/16 03:16:45;;;;;;;1.20;0.20;;;12.50;99.90;;;;;;6113441;23;20006;-80
2022/09/16 03:19:20;;;;;;;1.15;0.30;;;12.60;99.90;;;;;;6057935;23;20085;-80
2022/09/16 03:21:58;;;;;;;1.30;0.20;;;12.60;99.90;;;;;;6080267;23;20438;-81
2022/09/16 03:25:14;;;;;;;0.95;0.20;;;12.60;99.90;;;;;;6108229;23;20002;-80
2022/09/16 03:27:51;;;;;;;2.58;0.20;;;12.60;99.90;;;;;;6054894;23;20010;-80
2022/09/16 03:30:18;;;;;;;2.15;0.30;;;12.60;99.90;;;;;;6087617;23;20010;-80
2022/09/16 03:33:01;;;;;;;1.23;0.30;;;12.50;99.90;;;;;;6080562;23;20002;-79
2022/09/16 03:35:41;;;;;;;3.50;0.20;;;12.50;99.90;;;;;;6101443;23;20025;-79
2022/09/16 03:38:11;;;;;;;2.35;0.22;;;12.50;99.90;;;;;;6113365;23;20007;-79
2022/09/16 03:40:37;;;;;;;1.52;0.28;;;12.50;99.90;;;;;;6079366;23;20005;-78
2022/09/16 03:43:15;;;;;;;1.80;0.20;;;12.50;99.90;;;;;;6078156;23;20013;-80
2022/09/16 03:45:42;;;;;;;2.65;0.52;;;12.50;99.90;;;;;;6082000;23;20009;-80
2022/09/16 03:48:10;;;;;;;3.88;0.30;;;12.50;99.90;;;;;;6070186;23;20015;-79
2022/09/16 03:50:37;;;;;;;3.53;0.75;;;12.50;99.90;;;;;;6122277;23;20046;-81
2022/09/16 03:53:03;;;;;;;1.90;0.30;;;12.60;99.90;;;;;;6119286;23;20430;-79
2022/09/16 03:55:30;;;;;;;2.65;0.30;;;12.60;99.90;;;;;;6117731;23;19996;-81
2022/09/16 03:58:02;;;;;;;2.85;0.30;;;12.60;99.90;;;;;;6099311;23;20058;-83
2022/09/16 04:00:33;;;;;;;1.73;0.20;;;12.60;99.90;;;;;;6068153;23;20010;-81
2022/09/16 04:03:04;;;;;;;1.25;0.20;;;12.60;99.90;;;;;;6064535;23;20014;-82
2022/09/16 04:05:37;;;;;;;;;;;12.60;99.90;;;;;;6046833;23;20016;-83
2022/09/16 04:08:13;;;;;;;2.75;0.30;;;12.60;99.90;;;;;;6097649;23;19915;-83
2022/09/16 04:10:40;;;;;;;1.83;0.28;;;12.60;99.90;;;;;;6048518;23;20021;-82
2022/09/16 04:13:16;;;;;;;5.32;0.32;;;12.60;99.90;;;;;;6065326;23;20016;-81
2022/09/16 04:15:43;;;;;;;1.30;0.30;;;12.60;99.90;;;;;;6061913;23;20013;-82
2022/09/16 04:18:12;;;;;;;1.00;0.20;;;12.60;99.90;;;;;;6060342;23;20010;-81
2022/09/16 04:20:44;;;;;;;2.15;0.30;;;12.60;99.90;;;;;;6086941;23;20006;-82
2022/09/16 04:23:19;;;;;;;4.68;0.45;;;12.60;99.90;;;;;;6063551;23;20021;-81
2022/09/16 04:25:56;;;;;;;2.97;0.30;;;12.60;99.90;;;;;;6062796;23;20006;-81
2022/09/16 04:28:38;;;;;;;5.82;0.40;;;12.60;99.90;;;;;;6063818;23;19999;-80
2022/09/16 04:31:23;;;;;;;5.45;0.40;;;12.60;99.90;;;;;;6064295;23;20012;-82
2022/09/16 04:33:56;;;;;;;3.15;0.30;;;12.60;99.90;;;;;;6084044;23;20021;-82
2022/09/16 04:36:25;;;;;;;2.28;0.20;;;12.50;99.90;;;;;;6081935;23;20128;-81
2022/09/16 04:39:05;;;;;;;3.50;0.40;;;12.50;99.90;;;;;;6058226;23;20006;-81
2022/09/16 04:41:34;;;;;;;3.72;0.40;;;12.50;99.90;;;;;;6035193;23;20002;-82
2022/09/16 04:44:01;;;;;;;3.35;0.30;;;12.50;99.90;;;;;;6059827;23;20011;-82
2022/09/16 04:46:33;;;;;;;2.15;0.40;;;12.50;99.90;;;;;;6058664;23;20010;-81
2022/09/16 04:49:03;;;;;;;2.15;0.30;;;12.50;99.90;;;;;;6082747;23;20002;-81
2022/09/16 04:51:39;;;;;;;2.30;0.30;;;12.50;99.90;;;;;;6058569;23;20002;-81
2022/09/16 04:54:06;;;;;;;1.05;0.20;;;12.50;99.90;;;;;;6058772;23;20006;-80
2022/09/16 04:56:35;;;;;;;1.83;0.40;;;12.50;99.90;;;;;;6059466;23;20006;-81
2022/09/16 04:59:16;;;;;;;5.65;0.70;;;12.50;99.90;;;;;;6084370;23;20002;-81
2022/09/16 05:01:45;;;;;;;3.15;0.50;;;12.50;99.90;;;;;;6083220;23;20330;-82
2022/09/16 05:04:35;;;;;;;3.10;0.40;;;12.40;99.90;;;;;;6083592;23;20006;-81
2022/09/16 05:07:06;;;;;;;4.20;0.40;;;12.40;99.90;;;;;;6059765;23;20010;-81
2022/09/16 05:09:36;;;;;;;2.15;0.40;;;12.30;99.90;;;;;;6059257;23;20025;-82
2022/09/16 05:12:08;;;;;;;3.85;0.35;;;12.30;99.90;;;;;;6059665;23;20013;-82
2022/09/16 05:14:38;;;;;;;2.83;0.30;;;12.30;99.90;;;;;;6059847;23;20011;-81
2022/09/16 05:17:08;;;;;;;2.42;0.30;;;12.30;99.90;;;;;;6090054;23;20021;-83
2022/09/16 05:19:37;;;;;;;3.33;0.30;;;12.20;99.90;;;;;;6052455;23;20062;-84
2022/09/16 05:22:07;;;;;;;2.22;0.30;;;12.10;99.90;;;;;;6052456;23;20073;-83
2022/09/16 05:24:36;;;;;;;5.30;0.35;;;12.10;99.90;;;;;;6100190;23;20046;-85
2022/09/16 05:27:03;;;;;;;1.08;0.20;;;12.00;99.90;;;;;;6092226;23;20016;-81
2022/09/16 05:29:36;;;;;;;1.95;0.40;;;11.90;99.90;;;;;;6086883;23;20003;-81
2022/09/16 05:32:13;;;;;;;2.70;0.30;;;11.90;99.90;;;;;;6063403;23;20002;-82
2022/09/16 05:34:39;;;;;;;2.50;0.30;;;11.90;99.90;;;;;;6087168;23;20010;-81
2022/09/16 05:37:07;;;;;;;1.58;0.30;;;11.80;99.90;;;;;;6083978;23;20007;-82
2022/09/16 05:39:33;;;;;;;0.77;0.20;;;11.80;99.90;;;;;;6061961;23;20006;-82
2022/09/16 05:42:03;;;;;;;2.28;0.20;;;11.80;99.90;;;;;;6061967;23;20006;-82
2022/09/16 05:44:35;;;;;;;1.85;0.30;;;11.70;99.90;;;;;;6037354;23;20016;-82
2022/09/16 05:47:07;;;;;;;1.02;0.20;;;11.70;99.90;;;;;;6061604;23;20010;-83
2022/09/16 05:49:36;;;;;;;2.58;0.30;;;11.70;99.90;;;;;;6060234;23;20013;-82
2022/09/16 05:52:05;;;;;;;3.58;0.68;;;11.70;99.90;;;;;;6038298;23;20021;-81
2022/09/16 05:54:38;;;;;;;1.35;0.30;;;11.70;99.90;;;;;;6037372;23;20010;-82
2022/09/16 05:57:13;;;;;;;1.88;0.30;;;11.60;99.90;;;;;;6084912;23;20006;-81
2022/09/16 05:59:42;;;;;;;1.40;0.30;;;11.60;99.90;;;;;;6059500;23;20017;-82
2022/09/16 06:02:14;;;;;;;2.22;0.20;;;11.70;99.90;;;;;;6037460;23;20609;-81
2022/09/16 06:04:43;;;;;;;2.42;0.28;;;11.70;99.90;;;;;;6059624;23;20010;-81
2022/09/16 06:07:12;;;;;;;1.50;0.20;;;11.80;99.90;;;;;;6059856;23;20018;-82
2022/09/16 06:09:46;;;;;;;2.60;0.30;;;11.90;99.90;;;;;;6081969;23;20310;-80
2022/09/16 06:12:14;;;;;;;2.15;0.20;;;12.00;99.90;;;;;;6056762;23;20013;-82
2022/09/16 06:14:50;;;;;;;1.52;0.20;;;12.20;99.90;;;;;;6059591;23;20208;-81
2022/09/16 06:17:20;;;;;;;0.47;0.10;;;12.30;99.90;;;;;;6082171;23;20020;-80
2022/09/16 06:19:50;;;;;;;1.02;0.20;;;12.40;99.90;;;;;;6058081;23;20090;-80
2022/09/16 06:22:18;;;;;;;1.40;0.20;;;12.50;99.90;;;;;;6034931;23;20088;-81
2022/09/16 06:24:56;;;;;;;2.10;0.20;;;12.60;99.90;;;;;;6084647;23;20565;-81
2022/09/16 06:27:35;;;;;;;2.33;0.30;;;12.70;99.90;;;;;;6088678;23;20010;-81
2022/09/16 06:30:03;;;;;;;5.00;0.77;;;12.80;99.90;;;;;;6107151;23;20010;-79
2022/09/16 06:32:30;;;;;;;3.25;0.35;;;12.90;99.90;;;;;;6104143;23;20026;-80
2022/09/16 06:34:57;;;;;;;3.30;0.20;;;12.90;99.90;;;;;;6104895;23;20013;-80
2022/09/16 06:37:26;;;;;;;2.38;0.30;;;13.00;99.90;;;;;;6080449;23;20482;-79
2022/09/16 06:39:52;;;;;;;1.25;0.20;;;13.10;99.90;;;;;;6103132;23;20338;-79
2022/09/16 06:42:18;;;;;;;1.83;0.45;;;13.10;99.90;;;;;;6052612;23;20012;-79
2022/09/16 06:44:45;;;;;;;1.58;0.38;;;13.20;99.90;;;;;;6096791;23;20018;-81
2022/09/16 06:47:14;;;;;;;3.33;0.68;;;13.30;99.90;;;;;;6053808;23;20014;-80
2022/09/16 06:49:40;;;;;;;2.97;0.40;;;13.40;99.90;;;;;;6114574;23;20006;-81
2022/09/16 06:52:26;;;;;;;1.50;0.47;;;13.50;99.90;;;;;;6057531;23;20014;-81
2022/09/16 06:54:56;;;;;;;2.50;0.35;;;13.70;99.90;;;;;;6077978;23;20022;-82
2022/09/16 06:57:30;;;;;;;2.45;0.30;;;13.70;99.90;;;;;;6055871;23;20030;-82
2022/09/16 06:59:59;;;;;;;4.50;0.50;;;13.80;99.90;;;;;;6103754;23;20484;-79
2022/09/16 07:02:25;;;;;;;3.15;0.30;;;13.90;99.90;;;;;;6104762;23;20346;-81
2022/09/16 07:04:52;;;;;;;2.15;0.40;;;14.00;99.90;;;;;;6080495;23;20013;-81
2022/09/16 07:07:20;;;;;;;1.42;0.30;;;14.00;99.90;;;;;;6103917;23;20007;-80
2022/09/16 07:09:52;;;;;;;2.40;0.40;;;14.10;99.90;;;;;;6057110;23;20011;-80
2022/09/16 07:12:33;;;;;;;2.75;0.38;;;14.20;99.90;;;;;;6103404;23;20361;-80
2022/09/16 07:14:59;;;;;;;3.45;0.32;;;14.20;99.90;;;;;;6077093;23;20010;-79
2022/09/16 07:17:34;;;;;;;2.80;0.32;;;14.30;99.90;;;;;;6077974;23;20013;-81
2022/09/16 07:20:04;;;;;;;1.05;0.20;;;14.50;99.90;;;;;;6101306;23;20014;-82
2022/09/16 07:22:31;;;;;;;1.90;0.20;;;14.60;99.90;;;;;;6078149;23;20006;-81
2022/09/16 07:24:57;;;;;;;3.05;0.30;;;14.80;99.90;;;;;;6078317;23;20012;-81
2022/09/16 07:27:30;;;;;;;1.13;0.20;;;15.00;99.90;;;;;;6054806;23;20010;-80
2022/09/16 07:30:02;;;;;;;1.25;0.20;;;15.20;99.90;;;;;;6055457;23;20454;-80
2022/09/16 07:32:29;;;;;;;4.05;0.30;;;15.30;99.90;;;;;;6079229;23;20006;-80
2022/09/16 07:35:05;;;;;;;2.80;0.40;;;15.30;99.90;;;;;;6102298;23;20014;-82
2022/09/16 07:37:34;;;;;;;3.28;0.40;;;15.20;99.90;;;;;;6054435;23;20012;-80
2022/09/16 07:40:02;;;;;;;4.70;0.30;;;15.20;99.90;;;;;;6055892;23;20024;-80
2022/09/16 07:42:36;;;;;;;2.83;0.35;;;15.10;99.90;;;;;;6076338;23;20342;-80
2022/09/16 07:45:08;;;;;;;5.05;0.40;;;15.10;99.90;;;;;;6056098;23;20013;-80
2022/09/16 07:47:35;;;;;;;3.90;0.40;;;15.10;99.90;;;;;;6053391;23;20021;-79
2022/09/16 07:50:10;;;;;;;1.70;0.40;;;15.10;99.90;;;;;;6078820;23;20326;-80
2022/09/16 07:52:40;;;;;;;3.72;0.30;;;15.10;99.90;;;;;;6053156;23;20012;-81
2022/09/16 07:55:14;;;;;;;5.68;0.40;;;15.20;99.90;;;;;;6100907;23;20468;-80
2022/09/16 07:58:01;;;;;;;2.58;0.40;;;15.20;99.90;;;;;;6057175;23;20450;-80
2022/09/16 08:00:29;;;;;;;2.30;0.30;;;15.30;99.90;;;;;;6078721;23;20025;-81
2022/09/16 08:02:56;;;;;;;2.70;0.30;;;15.50;99.90;;;;;;6053719;23;20006;-81
2022/09/16 08:05:25;;;;;;;2.60;0.30;;;15.70;99.90;;;;;;6053678;23;19999;-81
2022/09/16 08:07:59;;;;;;;3.78;0.43;;;15.90;99.90;;;;;;6057313;23;20010;-80
2022/09/16 08:10:28;;;;;;;3.63;0.40;;;16.10;99.90;;;;;;6066644;23;20001;-78
2022/09/16 08:12:57;;;;;;;4.20;0.50;;;16.20;99.90;;;;;;6115573;23;20006;-80
2022/09/16 08:15:26;;;;;;;1.48;0.30;;;16.10;99.90;;;;;;6066470;23;20010;-82
2022/09/16 08:17:53;;;;;;;1.60;0.20;;;16.00;99.90;;;;;;6057467;23;20014;-81
2022/09/16 08:20:19;;;;;;;1.25;0.20;;;15.80;99.90;;;;;;6055690;23;20007;-82
2022/09/16 08:22:53;;;;;;;2.60;0.30;;;15.80;99.90;;;;;;6056177;23;20024;-82
2022/09/16 08:25:22;;;;;;;2.65;0.30;;;15.70;99.90;;;;;;6057157;23;20020;-81
2022/09/16 08:28:14;;;;;;;2.97;0.40;;;15.80;99.90;;;;;;6057529;23;20011;-82
2022/09/16 08:30:52;;;;;;;3.13;0.60;;;16.00;99.90;;;;;;6047644;23;20458;-81
2022/09/16 08:33:24;;;;;;;2.90;0.40;;;16.00;99.90;;;;;;6113785;23;20328;-83
2022/09/16 08:36:03;;;;;;;4.38;0.40;;;16.10;99.90;;;;;;6059628;23;20010;-83
2022/09/16 08:38:48;;;;;;;6.20;0.50;;;16.20;99.90;;;;;;6081664;23;20017;-83
2022/09/16 08:41:40;;;;;;;2.67;0.40;;;16.30;99.90;;;;;;6054979;23;20461;-82
2022/09/16 08:44:40;;;;;;;1.42;0.30;;;16.40;99.90;;;;;;6103733;23;20002;-83
2022/09/16 08:47:47;;;;;;;4.38;0.60;;;16.50;99.90;;;;;;6099953;23;20018;-81
2022/09/16 08:50:19;;;;;;;2.30;0.40;;;16.70;99.90;;;;;;6051727;23;20012;-80
2022/09/16 08:52:47;;;;;;;2.72;0.30;;;16.80;99.90;;;;;;6100900;23;20010;-80
2022/09/16 08:55:30;;;;;;;2.15;0.30;;;16.90;99.90;;;;;;6103157;23;20013;-79
2022/09/16 08:58:14;;;;;;;5.82;0.40;;;17.20;99.90;;;;;;6087386;23;20003;-81
2022/09/16 09:00:43;;;;;;;2.45;0.55;;;17.70;99.90;;;;;;6077157;23;20010;-81
2022/09/16 09:03:37;;;;;;;3.47;0.55;;;17.90;99.90;;;;;;6054897;23;20013;-78
2022/09/16 09:06:15;;;;;;;2.00;0.55;;;18.00;99.90;;;;;;6055664;23;20476;-80
2022/09/16 09:09:30;;;;;;;3.45;0.55;;;17.80;99.90;;;;;;6053304;23;20034;-80
2022/09/16 09:12:06;;;;;;;3.33;0.30;;;17.60;99.90;;;;;;5994949;23;20007;-79
2022/09/16 09:14:36;;;;;;;1.65;0.20;;;17.20;99.90;;;;;;6043129;23;20016;-80
2022/09/16 09:17:22;;;;;;;2.42;0.30;;;17.10;99.90;;;;;;6101005;23;20013;-80
2022/09/16 09:20:15;;;;;;;2.75;0.20;;;17.20;99.90;;;;;;6110928;23;20461;-79
2022/09/16 09:23:13;;;;;;;2.00;0.20;;;17.40;99.90;;;;;;6101923;23;20011;-80
2022/09/16 09:25:56;;;;;;;1.65;0.30;;;17.60;99.90;;;;;;6052036;23;20342;-79
2022/09/16 09:28:51;;;;;;;2.33;0.20;;;17.60;98.50;;;;;;6054005;23;20474;-80
2022/09/16 09:31:46;;;;;;;2.85;0.40;;;17.50;98.70;;;;;;6077716;23;20014;-79
2022/09/16 09:34:38;;;;;;;3.08;0.50;;;17.50;98.70;;;;;;6078176;23;20002;-80
2022/09/16 09:37:44;;;;;;;3.10;0.30;;;17.50;98.90;;;;;;6077726;23;20017;-80
2022/09/16 09:40:54;;;;;;;3.33;0.30;;;17.60;98.50;;;;;;6110291;23;20014;-81
2022/09/16 09:43:44;;;;;;;1.40;0.20;;;17.70;98.80;;;;;;6078089;23;20007;-80
2022/09/16 09:46:22;;;;;;;1.52;0.25;;;17.80;97.90;;;;;;6053482;23;20044;-82
2022/09/16 09:49:08;;;;;;;2.28;0.20;;;17.80;97.00;;;;;;6097250;23;20020;-80
2022/09/16 09:51:46;;;;;;;2.40;0.40;;;17.80;96.70;;;;;;6077498;23;20014;-79
2022/09/16 09:54:26;;;;;;;0.85;0.20;;;17.80;96.40;;;;;;6055147;23;20014;-79
2022/09/16 09:57:02;;;;;;;2.40;0.20;;;17.90;95.90;;;;;;6104830;23;20483;-79
2022/09/16 09:59:49;;;;;;;0.93;0.20;;;18.00;95.80;;;;;;6110150;23;20002;-80
2022/09/16 10:02:21;;;;;;;3.10;0.40;;;18.20;96.00;;;;;;6078252;23;20007;-78
2022/09/16 10:04:48;;;;;;;2.47;0.30;;;18.50;95.70;;;;;;6076594;23;20350;-79
2022/09/16 10:07:21;;;;;;;0.75;0.20;;;18.70;95.70;;;;;;6102807;23;20013;-81
2022/09/16 10:10:00;;;;;;;0.80;0.20;;;18.90;95.60;;;;;;6052667;23;20021;-80
2022/09/16 10:12:33;;;;;;;1.33;0.20;;;19.00;95.10;;;;;;6086581;23;20006;-80
2022/09/16 10:15:03;;;;;;;1.10;0.20;;;19.00;94.80;;;;;;6075674;23;20020;-80
2022/09/16 10:17:34;;;;;;;2.55;0.77;;;19.20;95.70;;;;;;6098872;23;20025;-79
2022/09/16 10:20:06;;;;;;;1.65;0.30;;;19.10;95.80;;;;;;6085279;23;20020;-79
2022/09/16 10:22:35;;;;;;;4.57;0.28;;;18.90;95.60;;;;;;6075497;23;20358;-81
2022/09/16 10:25:06;;;;;;;1.70;0.30;;;18.90;95.20;;;;;;6099542;23;20011;-81
2022/09/16 10:28:21;;;;;;;1.85;0.38;;;19.10;95.90;;;;;;6052297;23;20461;-80
2022/09/16 10:31:06;;;;;;;3.50;0.30;;;19.60;95.90;;;;;;6077408;23;20057;-79
2022/09/16 10:33:46;;;;;;;2.05;0.20;;;20.20;95.70;;;;;;6074829;23;20474;-80
2022/09/16 10:36:25;;;;;;;2.25;0.30;;;20.70;95.40;;;;;;6076264;23;20011;-81
2022/09/16 10:38:57;;;;;;;2.30;0.32;;;21.10;94.50;;;;;;6050960;23;20010;-81
2022/09/16 10:41:26;;;;;;;1.30;0.50;;;21.40;94.10;;;;;;6110262;23;20007;-80
2022/09/16 10:43:57;;;;;;;2.00;0.50;;;21.50;92.80;;;;;;6048839;23;20026;-80
2022/09/16 10:46:24;;;;;;;2.00;0.40;;;21.60;92.00;;;;;;6075669;23;20018;-81
2022/09/16 10:49:04;;;;;;;2.15;0.45;;;21.90;91.70;;;;;;6054007;23;20014;-80
2022/09/16 10:51:33;;;;;;;2.25;0.45;;;22.00;90.20;;;;;;6085046;23;20012;-81
2022/09/16 10:54:02;;;;;;;2.28;0.50;;;21.60;90.30;;;;;;6098589;23;20342;-80
2022/09/16 10:56:33;;;;;;;2.50;0.50;;;21.40;90.00;;;;;;6051677;23;20006;-80
2022/09/16 10:59:07;;;;;;;2.92;0.30;;;21.50;90.40;;;;;;6052060;23;20018;-80
2022/09/16 11:02:02;;;;;;;2.15;0.38;;;21.70;89.80;;;;;;6099588;23;20002;-80
2022/09/16 11:04:56;;;;;;;3.40;0.40;;;22.20;87.80;;;;;;6077371;23;20011;-81
2022/09/16 11:07:33;;;;;;;2.45;0.40;;;22.70;87.20;;;;;;6074553;23;20464;-79
2022/09/16 11:10:24;;;;;;;3.05;0.45;;;22.50;86.10;;;;;;6050844;23;20010;-79
2022/09/16 11:13:16;;;;;;;3.92;0.30;;;22.60;85.00;;;;;;6068321;23;20007;-79
2022/09/16 11:16:29;;;;;;;3.10;0.47;;;22.80;83.00;;;;;;6098733;23;20007;-79
2022/09/16 11:23:04;;;;;;;1.85;0.30;;;22.90;81.40;;;;;;6046271;23;20472;-83
2022/09/16 11:26:00;;;;;;;1.67;0.30;;;21.80;82.90;;;;;;6010974;23;20009;-82
2022/09/16 11:29:43;;;;;;;1.50;0.22;;;21.70;84.20;;;;;;6114741;23;20017;-81
2022/09/16 11:32:59;;;;;;;0.73;0.20;;;22.40;83.30;;;;;;6102665;23;20018;-81
2022/09/16 11:39:55;;;;;;;1.33;0.30;;;23.70;80.00;;;;;;6081287;23;20007;-83
2022/09/16 11:42:51;;;;;;;1.58;0.88;;;24.10;77.20;;;;;;6081491;23;20007;-83
2022/09/16 11:46:23;;;;;;;2.40;0.65;;;24.20;76.40;;;;;;6018002;23;20022;-82
2022/09/16 11:49:34;;;;;;;;;;;;;;;;;;;;;
2022/09/16 11:52:33;;;;;;;1.48;0.40;;;25.10;70.80;;;;;;6056076;23;20017;-84
2022/09/16 11:56:08;;;;;;;2.22;0.50;;;25.60;70.00;;;;;;6053053;23;20002;-83
2022/09/16 12:03:28;;;;;;;2.67;0.50;;;24.30;67.80;;;;;;6055703;23;20020;-83
2022/09/16 12:06:46;;;;;;;2.83;0.50;;;22.90;69.50;;;;;;6050517;23;20006;-83
2022/09/16 12:09:54;;;;;;;4.55;0.50;;;23.10;69.20;;;;;;6018296;23;20010;-83
2022/09/16 12:13:07;;;;;;;4.55;0.60;;;24.30;67.60;;;;;;6024594;23;20033;-83
2022/09/16 12:20:47;;;;;;;5.78;0.88;;;26.70;62.30;;;;;;6048589;23;20017;-83
2022/09/16 12:24:25;;;;;;;2.50;0.50;;;27.40;59.70;;;;;;6078356;23;20014;-83
2022/09/16 12:28:26;;;;;;;5.90;0.90;;;27.60;58.00;;;;;;6072995;23;20526;-83
2022/09/16 12:31:37;;;;;;;5.60;0.85;;;27.40;56.20;;;;;;5998713;23;20476;-82
2022/09/16 12:37:53;;;;;;;6.20;0.60;;;27.90;54.90;;;;;;6125921;23;20022;-81
2022/09/16 12:41:21;;;;;;;4.22;0.50;;;27.60;55.00;;;;;;6061054;23;20014;-83
2022/09/16 12:51:55;;;;;;;2.00;0.50;;;26.00;59.20;;;;;;5964691;24;20387;-82
2022/09/16 12:55:42;;;;;;;3.63;0.60;;;26.70;58.70;;;;;;6069445;23;20458;-83
2022/09/16 12:58:58;;;;;;;2.83;0.50;;;27.60;59.50;;;;;;6094745;23;20014;-81
2022/09/16 13:02:37;;;;;;;3.83;0.50;;;28.60;59.00;;;;;;6091427;23;20338;-83
2022/09/16 13:06:39;;;;;;;1.95;0.45;;;29.40;58.50;;;;;;6044882;23;20019;-83
2022/09/16 13:10:32;;;;;;;3.72;0.70;;;30.30;56.70;;;;;;6019639;23;20015;-84
2022/09/16 13:17:30;;;;;;;5.03;0.95;;;29.80;52.00;;;;;;5966968;23;20012;-83
2022/09/16 13:21:38;;;;;;;3.67;0.88;;;27.90;55.30;;;;;;5980942;23;20092;-84
2022/09/16 13:25:17;;;;;;;5.03;1.40;;;27.90;55.40;;;;;;5990683;23;20016;-83
2022/09/16 13:28:32;;;;;;;6.93;0.50;;;27.20;55.80;;;;;;5991626;23;20014;-79
2022/09/16 13:31:16;;;;;;;4.28;0.50;;;27.50;55.40;;;;;;6051964;23;20032;-83
2022/09/16 13:34:13;;;;;;;3.03;0.50;;;27.10;56.30;;;;;;6107568;23;20010;-80
2022/09/16 13:36:39;;;;;;;4.03;1.20;;;27.70;55.50;;;;;;6106307;23;20017;-80
2022/09/16 13:39:13;;;;;;;3.45;0.82;;;27.60;55.50;;;;;;6059954;23;20120;-80
2022/09/16 13:41:41;;;;;;;5.00;1.13;;;26.60;56.60;;;;;;6108386;23;20010;-79
2022/09/16 13:44:32;;;;;;;2.47;0.60;;;26.60;57.50;;;;;;6098575;23;20529;-81
2022/09/16 13:47:11;;;;;;;4.75;0.40;;;26.90;57.10;;;;;;6097748;23;20007;-81
2022/09/16 13:49:54;;;;;;;3.42;0.50;;;27.40;56.20;;;;;;6049376;23;20025;-81
2022/09/16 13:52:32;;;;;;;2.35;0.50;;;28.00;55.50;;;;;;6085148;23;20455;-81
2022/09/16 13:55:01;;;;;;;4.00;0.68;;;28.10;53.60;;;;;;6078965;23;20006;-81
2022/09/16 13:57:55;;;;;;;3.10;0.50;;;27.20;54.30;;;;;;6075454;23;20028;-81
2022/09/16 14:00:57;;;;;;;3.60;0.65;;;26.00;55.90;;;;;;6109849;23;20012;-81
2022/09/16 14:03:38;;;;;;;3.40;0.60;;;24.60;57.80;;;;;;6110522;23;20003;-81
2022/09/16 14:06:44;;;;;;;2.88;0.63;;;23.60;59.70;;;;;;6100103;23;20007;-81
2022/09/16 14:09:32;;;;;;;3.55;0.50;;;22.70;60.80;;;;;;6086092;23;20006;-81
2022/09/16 14:12:23;;;;;;;6.05;0.60;;;22.10;62.50;;;;;;6076115;23;20328;-81
2022/09/16 14:14:50;;;;;;;3.92;0.57;;;21.70;62.70;;;;;;6052042;23;20006;-81
2022/09/16 14:17:22;;;;;;;3.78;0.50;;;21.10;64.10;;;;;;6075044;23;20037;-80
2022/09/16 14:19:51;;;;;;;4.28;0.73;;;20.60;65.80;;;;;;6075185;23;20010;-80
2022/09/16 14:22:21;;;;;;;2.70;0.70;;;20.10;66.90;;;;;;6077078;23;20011;-81
2022/09/16 14:24:54;;;;;;;2.75;0.40;;;19.80;68.20;;;;;;6108074;23;20009;-82
2022/09/16 14:27:21;;;;;;;;;;;19.50;69.10;;;;;;6076433;23;20007;-81
2022/09/16 14:30:19;;;;;;;4.28;0.60;;;19.40;69.60;;;;;;6117356;23;19912;-82
2022/09/16 14:32:50;;;;;;;3.67;0.57;;;19.20;70.40;;;;;;6079805;23;20017;-82
2022/09/16 14:35:49;;;;;;;;;;;;;;;;;;;;;
2022/09/16 14:38:59;;;;;;;3.78;0.47;;;19.10;71.80;;;;;;6061180;23;20026;-83
2022/09/16 14:42:04;;;;;;;4.95;0.50;;;19.10;72.50;;;;;;6053971;23;20342;-82
2022/09/16 14:44:54;;;;;;;5.03;0.40;;;19.20;73.30;;;;;;6074742;23;20460;-83
2022/09/16 14:48:05;;;;;;;3.63;0.60;;;19.20;74.90;;;;;;6075963;23;20006;-81
2022/09/16 14:50:45;;;;;;;5.95;0.50;;;19.10;75.90;;;;;;6076714;23;20007;-83
2022/09/16 14:53:41;;;;;;;2.67;0.40;;;18.60;78.40;;;;;;6118405;23;20020;-83
2022/09/16 14:56:27;;;;;;;2.27;0.30;;;18.20;80.00;;;;;;6077223;23;20009;-82
2022/09/16 14:59:16;;;;;;;1.83;0.22;;;17.80;80.30;;;;;;6054638;23;20010;-82
2022/09/16 15:02:25;;;;;;;4.47;0.35;;;17.60;80.50;;;;;;6054992;23;20334;-81
2022/09/16 15:05:25;;;;;;;1.85;0.30;;;17.30;79.80;;;;;;6016655;23;20019;-82
2022/09/16 15:08:53;;;;;;;2.85;0.22;;;17.00;80.30;;;;;;6065954;23;20449;-81
2022/09/16 15:11:47;;;;;;;2.95;0.40;;;16.90;81.20;;;;;;6076104;23;20037;-81
2022/09/16 15:14:25;;;;;;;;;;;;;;;;;;;;;
2022/09/16 15:17:01;;;;;;;3.17;0.30;;;16.70;83.80;;;;;;6112233;23;20010;-81
2022/09/16 15:19:40;;;;;;;2.10;0.30;;;16.70;84.30;;;;;;6108679;23;20315;-81
2022/09/16 15:22:13;;;;;;;3.88;0.30;;;16.70;84.80;;;;;;6029452;23;20010;-82
2022/09/16 15:24:51;;;;;;;1.30;0.30;;;16.60;85.20;;;;;;6099263;23;20009;-82
2022/09/16 15:27:35;;;;;;;4.38;0.38;;;16.70;85.50;;;;;;6051783;23;20013;-82
2022/09/16 15:33:51;;;;;;;2.85;0.50;;;16.70;86.00;;;;;;6049793;23;20064;-82
2022/09/16 15:36:40;;;;;;;2.83;0.30;;;16.70;85.90;;;;;;6052380;23;20021;-82
2022/09/16 15:39:35;;;;;;;2.47;0.25;;;16.70;86.00;;;;;;6102738;23;20002;-80
2022/09/16 15:42:24;;;;;;;2.15;0.50;;;16.80;86.10;;;;;;6072504;23;20010;-81
2022/09/16 15:45:23;;;;;;;3.53;0.88;;;16.80;85.80;;;;;;6071967;23;20007;-81
2022/09/16 15:48:20;;;;;;;3.42;0.60;;;17.00;85.60;;;;;;6050757;23;20007;-81
2022/09/16 15:50:55;;;;;;;3.47;0.98;;;17.20;84.70;;;;;;6098245;23;20010;-81
2022/09/16 15:53:35;;;;;;;5.35;0.75;;;17.40;84.30;;;;;;6074747;23;20612;-78
2022/09/16 15:56:08;;;;;;;6.13;1.13;;;17.50;83.40;;;;;;6107747;23;20442;-77
2022/09/16 15:58:46;;;;;;;5.70;0.80;;;17.40;80.30;;;;;;6049187;23;20014;-81
2022/09/16 16:01:39;;;;;;;4.10;0.52;;;17.10;80.30;;;;;;6073788;23;20006;-83
2022/09/16 16:04:24;;;;;;;3.33;0.60;;;16.80;81.80;;;;;;6076050;23;20003;-83
2022/09/16 16:06:57;;;;;;;7.03;0.50;;;16.50;82.60;;;;;;5994245;23;20014;-81
2022/09/16 16:09:39;;;;;;;5.50;0.60;;;16.40;83.10;;;;;;6076254;23;20016;-81
2022/09/16 16:12:18;;;;;;;4.43;0.60;;;16.30;83.20;;;;;;6083905;23;20011;-80
2022/09/16 16:14:45;;;;;;;5.72;0.70;;;16.20;83.70;;;;;;6098175;23;20015;-79
2022/09/16 16:17:22;;;;;;;5.30;0.73;;;16.20;84.20;;;;;;6074334;23;20473;-79
2022/09/16 16:19:49;;;;;;;5.30;0.80;;;16.20;84.40;;;;;;6049671;23;20017;-79
2022/09/16 16:22:19;;;;;;;10.38;1.25;;;16.10;84.60;;;;;;6097054;23;20003;-81
2022/09/16 16:24:45;;;;;;;7.43;1.20;;;16.10;85.00;;;;;;6099243;23;20434;-78